createdAt,value
2018-07-24T00:00:58.822Z,23.47
2018-07-24T00:01:58.846Z,23.39
2018-07-24T00:02:58.873Z,23.39
2018-07-24T00:03:58.898Z,23.44
2018-07-24T00:05:19.939Z,23.38
2018-07-24T00:05:58.948Z,23.44
2018-07-24T00:06:58.971Z,23.41
2018-07-24T00:07:59.000Z,23.41
2018-07-24T00:08:59.025Z,23.39
2018-07-24T00:09:59.047Z,23.38
2018-07-24T00:11:20.092Z,23.41
2018-07-24T00:11:59.098Z,23.37
2018-07-24T00:12:59.123Z,23.38
2018-07-24T00:13:59.149Z,23.42
2018-07-24T00:14:59.173Z,23.35
2018-07-24T00:15:59.201Z,23.41
2018-07-24T00:17:20.244Z,23.34
2018-07-24T00:17:59.248Z,23.39
2018-07-24T00:18:59.271Z,23.42
2018-07-24T00:19:59.296Z,23.35
2018-07-24T00:20:59.322Z,23.34
2018-07-24T00:21:59.344Z,23.34
2018-07-24T00:23:20.391Z,23.39
2018-07-24T00:23:59.403Z,23.37
2018-07-24T00:24:59.425Z,23.31
2018-07-24T00:25:59.447Z,23.31
2018-07-24T00:26:59.475Z,23.38
2018-07-24T00:27:59.509Z,23.31
2018-07-24T00:29:20.537Z,23.31
2018-07-24T00:29:59.546Z,23.31
2018-07-24T00:30:59.573Z,23.39
2018-07-24T00:31:59.624Z,23.26
2018-07-24T00:32:59.620Z,23.22
2018-07-24T00:33:59.646Z,23.35
2018-07-24T00:35:20.688Z,23.35
2018-07-24T00:35:59.697Z,23.35
2018-07-24T00:36:59.721Z,23.35
2018-07-24T00:37:59.746Z,23.32
2018-07-24T00:38:59.769Z,23.34
2018-07-24T00:39:59.797Z,23.21
2018-07-24T00:41:20.836Z,23.26
2018-07-24T00:41:59.843Z,23.35
2018-07-24T00:42:59.873Z,23.25
2018-07-24T00:43:59.896Z,23.32
2018-07-24T00:44:59.925Z,23.35
2018-07-24T00:45:59.946Z,23.31
2018-07-24T00:47:20.988Z,23.26
2018-07-24T00:47:59.997Z,23.37
2018-07-24T00:49:00.023Z,23.26
2018-07-24T00:50:00.044Z,23.32
2018-07-24T00:51:00.068Z,23.34
2018-07-24T00:52:00.094Z,23.25
2018-07-24T00:53:21.135Z,23.31
2018-07-24T00:54:00.142Z,23.26
2018-07-24T00:55:00.170Z,23.32
2018-07-24T00:56:00.195Z,23.35
2018-07-24T00:57:00.220Z,23.26
2018-07-24T00:58:00.244Z,23.34
2018-07-24T00:59:21.284Z,23.32
2018-07-24T01:00:00.292Z,23.32
2018-07-24T01:01:00.318Z,23.31
2018-07-24T01:02:00.343Z,23.23
2018-07-24T01:03:00.370Z,23.31
2018-07-24T01:04:00.395Z,23.25
2018-07-24T01:05:21.451Z,23.26
2018-07-24T01:06:00.445Z,23.23
2018-07-24T01:07:00.468Z,23.25
2018-07-24T01:08:00.493Z,23.23
2018-07-24T01:09:00.519Z,23.31
2018-07-24T01:10:00.542Z,23.25
2018-07-24T01:11:21.585Z,23.26
2018-07-24T01:12:00.594Z,23.29
2018-07-24T01:13:00.619Z,23.26
2018-07-24T01:14:00.643Z,23.21
2018-07-24T01:15:00.665Z,23.22
2018-07-24T01:16:00.693Z,23.25
2018-07-24T01:17:21.733Z,23.21
2018-07-24T01:18:00.742Z,23.23
2018-07-24T01:19:00.765Z,23.21
2018-07-24T01:20:00.792Z,23.23
2018-07-24T01:21:00.816Z,23.23
2018-07-24T01:22:00.840Z,23.23
2018-07-24T01:23:21.885Z,23.22
2018-07-24T01:24:00.891Z,23.23
2018-07-24T01:25:00.917Z,23.21
2018-07-24T01:26:00.941Z,23.23
2018-07-24T01:27:00.966Z,23.31
2018-07-24T01:28:00.989Z,23.23
2018-07-24T01:29:22.033Z,23.21
2018-07-24T01:30:01.039Z,23.16
2018-07-24T01:31:01.067Z,23.18
2018-07-24T01:32:01.092Z,23.21
2018-07-24T01:33:01.117Z,23.21
2018-07-24T01:34:01.140Z,23.19
2018-07-24T01:35:22.183Z,23.22
2018-07-24T01:36:01.192Z,23.21
2018-07-24T01:37:01.218Z,23.19
2018-07-24T01:38:01.239Z,23.15
2018-07-24T01:39:01.266Z,23.21
2018-07-24T01:40:01.294Z,23.23
2018-07-24T01:41:22.328Z,23.21
2018-07-24T01:42:01.338Z,23.21
2018-07-24T01:43:01.364Z,23.11
2018-07-24T01:44:01.389Z,23.22
2018-07-24T01:45:01.415Z,23.18
2018-07-24T01:46:01.438Z,23.11
2018-07-24T01:47:22.477Z,23.16
2018-07-24T01:48:01.485Z,23.16
2018-07-24T01:49:01.514Z,23.12
2018-07-24T01:50:01.537Z,23.12
2018-07-24T01:51:01.561Z,23.16
2018-07-24T01:52:01.586Z,23.18
2018-07-24T01:53:22.628Z,23.16
2018-07-24T01:54:01.636Z,23.16
2018-07-24T01:55:01.662Z,23.18
2018-07-24T01:56:01.690Z,23.14
2018-07-24T01:57:01.729Z,23.09
2018-07-24T01:58:01.737Z,23.22
2018-07-24T01:59:22.776Z,23.12
2018-07-24T02:00:01.786Z,23.12
2018-07-24T02:01:01.811Z,23.11
2018-07-24T02:02:01.833Z,23.11
2018-07-24T02:03:01.862Z,23.18
2018-07-24T02:04:01.885Z,23.15
2018-07-24T02:05:22.930Z,23.21
2018-07-24T02:06:01.936Z,23.11
2018-07-24T02:07:01.960Z,23.14
2018-07-24T02:08:01.985Z,23.15
2018-07-24T02:09:02.011Z,23.16
2018-07-24T02:10:02.032Z,23.16
2018-07-24T02:11:23.074Z,23.18
2018-07-24T02:12:02.086Z,23.12
2018-07-24T02:13:02.108Z,23.16
2018-07-24T02:14:02.132Z,23.16
2018-07-24T02:15:02.158Z,23.15
2018-07-24T02:16:02.186Z,23.03
2018-07-24T02:17:23.226Z,23.18
2018-07-24T02:18:02.235Z,23.03
2018-07-24T02:19:02.256Z,23.14
2018-07-24T02:20:02.280Z,23.14
2018-07-24T02:21:02.306Z,23.00
2018-07-24T02:22:02.330Z,23.14
2018-07-24T02:23:23.371Z,23.01
2018-07-24T02:24:02.379Z,23.04
2018-07-24T02:25:02.405Z,23.04
2018-07-24T02:26:02.429Z,23.06
2018-07-24T02:27:02.455Z,23.03
2018-07-24T02:28:02.483Z,23.04
2018-07-24T02:29:23.522Z,23.06
2018-07-24T02:30:02.531Z,23.06
2018-07-24T02:31:02.553Z,23.04
2018-07-24T02:32:02.578Z,22.99
2018-07-24T02:33:02.603Z,23.06
2018-07-24T02:34:02.632Z,23.01
2018-07-24T02:35:23.671Z,22.96
2018-07-24T02:36:02.679Z,23.01
2018-07-24T02:37:02.704Z,23.04
2018-07-24T02:38:02.728Z,23.07
2018-07-24T02:39:02.761Z,23.04
2018-07-24T02:40:02.777Z,22.97
2018-07-24T02:41:23.823Z,23.01
2018-07-24T02:42:02.828Z,23.07
2018-07-24T02:43:02.850Z,23.01
2018-07-24T02:44:02.878Z,23.09
2018-07-24T02:45:02.905Z,23.04
2018-07-24T02:46:02.924Z,23.01
2018-07-24T02:47:23.968Z,23.06
2018-07-24T02:48:02.976Z,22.96
2018-07-24T02:49:03.003Z,23.06
2018-07-24T02:50:03.024Z,22.96
2018-07-24T02:51:03.048Z,23.07
2018-07-24T02:52:03.073Z,23.04
2018-07-24T02:53:24.121Z,23.04
2018-07-24T02:54:03.123Z,22.99
2018-07-24T02:55:03.147Z,23.00
2018-07-24T02:56:03.170Z,22.97
2018-07-24T02:57:03.199Z,23.00
2018-07-24T02:58:03.222Z,22.99
2018-07-24T02:59:24.265Z,23.06
2018-07-24T03:00:03.273Z,22.97
2018-07-24T03:01:03.298Z,23.03
2018-07-24T03:02:03.333Z,23.07
2018-07-24T03:03:03.345Z,23.00
2018-07-24T03:04:03.371Z,23.00
2018-07-24T03:05:24.417Z,22.93
2018-07-24T03:06:03.419Z,22.91
2018-07-24T03:07:03.450Z,22.86
2018-07-24T03:08:03.473Z,22.88
2018-07-24T03:09:03.496Z,22.79
2018-07-24T03:10:03.528Z,22.81
2018-07-24T03:11:24.561Z,22.82
2018-07-24T03:12:03.567Z,22.85
2018-07-24T03:13:03.594Z,22.76
2018-07-24T03:14:03.616Z,22.76
2018-07-24T03:15:03.644Z,22.70
2018-07-24T03:16:03.679Z,22.75
2018-07-24T03:17:24.709Z,22.70
2018-07-24T03:18:03.724Z,22.76
2018-07-24T03:19:03.740Z,22.67
2018-07-24T03:20:03.764Z,22.70
2018-07-24T03:21:03.790Z,22.66
2018-07-24T03:22:03.814Z,22.70
2018-07-24T03:23:24.858Z,22.67
2018-07-24T03:24:03.864Z,22.63
2018-07-24T03:25:03.890Z,22.63
2018-07-24T03:26:03.918Z,22.63
2018-07-24T03:27:03.942Z,22.67
2018-07-24T03:28:03.986Z,22.63
2018-07-24T03:29:25.005Z,22.60
2018-07-24T03:30:04.011Z,22.57
2018-07-24T03:31:04.033Z,22.59
2018-07-24T03:32:04.059Z,22.61
2018-07-24T03:33:04.083Z,22.61
2018-07-24T03:34:04.107Z,22.59
2018-07-24T03:35:25.150Z,22.52
2018-07-24T03:36:04.158Z,22.56
2018-07-24T03:37:04.185Z,22.60
2018-07-24T03:38:04.209Z,22.63
2018-07-24T03:39:04.230Z,22.59
2018-07-24T03:40:04.256Z,22.61
2018-07-24T03:41:25.298Z,22.60
2018-07-24T03:42:04.306Z,22.56
2018-07-24T03:43:04.328Z,22.59
2018-07-24T03:44:04.354Z,22.64
2018-07-24T03:45:04.404Z,22.70
2018-07-24T03:46:04.402Z,22.72
2018-07-24T03:47:25.445Z,22.74
2018-07-24T03:48:04.454Z,22.74
2018-07-24T03:49:04.482Z,22.94
2018-07-24T03:50:04.502Z,22.96
2018-07-24T03:51:04.527Z,23.07
2018-07-24T03:52:04.551Z,23.14
2018-07-24T03:53:25.592Z,23.14
2018-07-24T03:54:04.600Z,23.15
2018-07-24T03:55:04.624Z,23.09
2018-07-24T03:56:04.653Z,23.21
2018-07-24T03:57:04.678Z,23.09
2018-07-24T03:58:04.701Z,23.15
2018-07-24T03:59:25.741Z,23.06
2018-07-24T04:00:04.752Z,23.21
2018-07-24T04:01:04.777Z,23.34
2018-07-24T04:02:04.797Z,23.50
2018-07-24T04:03:04.821Z,23.74
2018-07-24T04:04:04.847Z,23.86
2018-07-24T04:05:25.891Z,24.15
2018-07-24T04:06:04.895Z,24.30
2018-07-24T04:07:04.922Z,24.44
2018-07-24T04:08:04.947Z,24.71
2018-07-24T04:09:04.972Z,24.94
2018-07-24T04:10:04.997Z,25.09
2018-07-24T04:11:26.038Z,25.31
2018-07-24T04:12:05.044Z,25.53
2018-07-24T04:13:05.076Z,25.71
2018-07-24T04:14:05.094Z,25.93
2018-07-24T04:15:05.119Z,26.04
2018-07-24T04:16:05.146Z,26.31
2018-07-24T04:17:26.190Z,26.50
2018-07-24T04:18:05.203Z,26.56
2018-07-24T04:19:05.223Z,26.66
2018-07-24T04:20:05.249Z,26.79
2018-07-24T04:21:05.281Z,27.02
2018-07-24T04:22:05.300Z,27.02
2018-07-24T04:23:26.343Z,26.93
2018-07-24T04:24:05.353Z,27.01
2018-07-24T04:25:05.380Z,27.02
2018-07-24T04:26:05.403Z,26.97
2018-07-24T04:27:05.432Z,26.98
2018-07-24T04:28:05.459Z,26.98
2018-07-24T04:29:26.504Z,27.05
2018-07-24T04:30:05.512Z,27.05
2018-07-24T04:31:05.574Z,27.21
2018-07-24T04:32:05.565Z,27.27
2018-07-24T04:33:05.592Z,27.28
2018-07-24T04:34:05.623Z,27.42
2018-07-24T04:35:26.663Z,27.63
2018-07-24T04:36:05.673Z,27.87
2018-07-24T04:37:05.703Z,27.86
2018-07-24T04:38:05.728Z,28.03
2018-07-24T04:39:05.758Z,28.21
2018-07-24T04:40:05.801Z,28.40
2018-07-24T04:41:26.831Z,28.57
2018-07-24T04:42:05.839Z,28.82
2018-07-24T04:43:05.866Z,28.85
2018-07-24T04:44:05.894Z,29.07
2018-07-24T04:45:05.922Z,29.17
2018-07-24T04:46:05.950Z,29.42
2018-07-24T04:47:26.999Z,29.69
2018-07-24T04:48:06.008Z,29.92
2018-07-24T04:49:06.036Z,30.15
2018-07-24T04:50:06.065Z,30.37
2018-07-24T04:51:06.095Z,30.63
2018-07-24T04:52:06.124Z,30.76
2018-07-24T04:53:27.171Z,30.88
2018-07-24T04:54:06.183Z,31.03
2018-07-24T04:55:06.208Z,31.27
2018-07-24T04:56:06.238Z,31.42
2018-07-24T04:57:06.267Z,31.50
2018-07-24T04:58:06.297Z,31.53
2018-07-24T04:59:27.345Z,31.45
2018-07-24T05:00:06.359Z,31.45
2018-07-24T05:01:06.391Z,31.28
2018-07-24T05:02:06.416Z,31.10
2018-07-24T05:03:06.448Z,30.85
2018-07-24T05:04:06.476Z,30.66
2018-07-24T05:05:27.525Z,30.44
2018-07-24T05:06:06.536Z,30.28
2018-07-24T05:07:06.564Z,30.21
2018-07-24T05:08:06.594Z,30.04
2018-07-24T05:09:06.625Z,29.99
2018-07-24T05:10:06.661Z,29.82
2018-07-24T05:11:27.711Z,29.71
2018-07-24T05:12:06.717Z,29.62
2018-07-24T05:13:06.749Z,29.51
2018-07-24T05:14:06.781Z,29.54
2018-07-24T05:15:06.811Z,29.42
2018-07-24T05:16:06.841Z,29.37
2018-07-24T05:17:27.891Z,29.33
2018-07-24T05:18:06.908Z,29.27
2018-07-24T05:19:06.937Z,29.32
2018-07-24T05:20:06.965Z,29.18
2018-07-24T05:21:06.995Z,29.25
2018-07-24T05:22:07.024Z,29.18
2018-07-24T05:23:28.083Z,29.12
2018-07-24T05:24:07.086Z,29.12
2018-07-24T05:25:07.118Z,29.07
2018-07-24T05:26:07.151Z,29.10
2018-07-24T05:27:07.184Z,29.15
2018-07-24T05:28:07.210Z,29.10
2018-07-24T05:29:28.264Z,29.03
2018-07-24T05:30:07.275Z,29.05
2018-07-24T05:31:07.304Z,29.08
2018-07-24T05:32:07.334Z,29.05
2018-07-24T05:33:07.380Z,29.07
2018-07-24T05:34:07.393Z,29.30
2018-07-24T05:35:28.444Z,29.45
2018-07-24T05:36:07.459Z,29.64
2018-07-24T05:37:07.487Z,30.04
2018-07-24T05:38:07.523Z,30.49
2018-07-24T05:39:07.550Z,30.93
2018-07-24T05:40:07.579Z,31.28
2018-07-24T05:41:28.631Z,31.50
2018-07-24T05:42:07.638Z,31.78
2018-07-24T05:43:07.672Z,31.95
2018-07-24T05:44:07.703Z,32.28
2018-07-24T05:45:07.730Z,32.44
2018-07-24T05:46:07.760Z,32.59
2018-07-24T05:47:28.810Z,32.78
2018-07-24T05:48:07.821Z,32.91
2018-07-24T05:49:07.860Z,32.99
2018-07-24T05:50:07.880Z,33.15
2018-07-24T05:51:07.910Z,33.28
2018-07-24T05:52:07.943Z,33.43
2018-07-24T05:53:28.993Z,33.28
2018-07-24T05:54:07.998Z,33.40
2018-07-24T05:55:08.056Z,33.56
2018-07-24T05:56:08.058Z,33.60
2018-07-24T05:57:08.088Z,33.71
2018-07-24T05:58:08.118Z,33.78
2018-07-24T05:59:29.168Z,33.77
2018-07-24T06:00:08.181Z,33.84
2018-07-24T06:01:08.211Z,33.84
2018-07-24T06:02:08.238Z,34.00
2018-07-24T06:03:08.269Z,34.11
2018-07-24T06:04:08.303Z,34.26
2018-07-24T06:05:29.347Z,34.56
2018-07-24T06:06:08.358Z,34.64
2018-07-24T06:07:08.392Z,34.72
2018-07-24T06:08:08.424Z,34.83
2018-07-24T06:09:08.453Z,34.90
2018-07-24T06:10:08.487Z,34.87
2018-07-24T06:11:29.538Z,35.09
2018-07-24T06:12:08.545Z,35.17
2018-07-24T06:13:08.598Z,35.07
2018-07-24T06:14:08.610Z,34.99
2018-07-24T06:15:08.637Z,35.05
2018-07-24T06:16:08.668Z,35.02
2018-07-24T06:17:29.791Z,35.13
2018-07-24T06:18:08.733Z,35.15
2018-07-24T06:19:08.764Z,35.21
2018-07-24T06:20:08.798Z,35.20
2018-07-24T06:21:08.829Z,35.24
2018-07-24T06:22:08.859Z,34.93
2018-07-24T06:23:29.927Z,34.60
2018-07-24T06:24:08.927Z,33.77
2018-07-24T06:25:08.967Z,32.95
2018-07-24T06:26:08.984Z,32.39
2018-07-24T06:27:09.018Z,32.14
2018-07-24T06:28:09.049Z,31.90
2018-07-24T06:29:30.103Z,32.10
2018-07-24T06:30:09.116Z,32.58
2018-07-24T06:31:09.147Z,33.33
2018-07-24T06:32:09.184Z,33.53
2018-07-24T06:33:09.213Z,33.18
2018-07-24T06:34:09.242Z,32.39
2018-07-24T06:35:30.293Z,31.84
2018-07-24T06:36:09.308Z,31.41
2018-07-24T06:37:09.341Z,31.01
2018-07-24T06:38:09.372Z,30.67
2018-07-24T06:39:09.399Z,30.66
2018-07-24T06:40:09.434Z,30.38
2018-07-24T06:41:30.482Z,30.13
2018-07-24T06:42:09.496Z,29.89
2018-07-24T06:43:09.528Z,29.78
2018-07-24T06:44:09.563Z,29.71
2018-07-24T06:45:09.592Z,29.63
2018-07-24T06:46:09.618Z,29.55
2018-07-24T06:47:30.667Z,29.41
2018-07-24T06:48:09.679Z,29.29
2018-07-24T06:49:09.712Z,29.30
2018-07-24T06:50:09.743Z,29.12
2018-07-24T06:51:09.812Z,29.07
2018-07-24T06:52:09.804Z,29.08
2018-07-24T06:53:30.853Z,28.97
2018-07-24T06:54:09.866Z,28.95
2018-07-24T06:55:09.895Z,28.83
2018-07-24T06:56:09.926Z,28.76
2018-07-24T06:57:09.961Z,28.77
2018-07-24T06:58:09.998Z,28.70
2018-07-24T06:59:31.030Z,28.64
2018-07-24T07:00:10.043Z,28.65
2018-07-24T07:01:10.073Z,28.62
2018-07-24T07:02:10.161Z,28.57
2018-07-24T07:03:10.135Z,28.52
2018-07-24T07:04:10.162Z,28.43
2018-07-24T07:05:31.211Z,28.42
2018-07-24T07:06:10.221Z,28.38
2018-07-24T07:07:10.249Z,28.28
2018-07-24T07:08:10.278Z,28.24
2018-07-24T07:09:10.309Z,28.32
2018-07-24T07:10:10.345Z,28.23
2018-07-24T07:11:31.385Z,28.24
2018-07-24T07:12:10.398Z,28.11
2018-07-24T07:13:10.479Z,28.14
2018-07-24T07:14:10.466Z,28.02
2018-07-24T07:15:10.498Z,28.03
2018-07-24T07:16:10.525Z,27.93
2018-07-24T07:17:31.564Z,27.95
2018-07-24T07:18:10.604Z,27.96
2018-07-24T07:19:10.599Z,27.91
2018-07-24T07:20:10.627Z,27.88
2018-07-24T07:21:10.657Z,27.81
2018-07-24T07:22:10.690Z,27.81
2018-07-24T07:23:31.785Z,27.86
2018-07-24T07:24:10.746Z,27.72
2018-07-24T07:25:10.776Z,27.74
2018-07-24T07:26:10.822Z,27.76
2018-07-24T07:27:10.835Z,27.68
2018-07-24T07:28:10.863Z,27.76
2018-07-24T07:29:31.914Z,27.63
2018-07-24T07:30:10.923Z,27.59
2018-07-24T07:31:10.949Z,27.65
2018-07-24T07:32:10.990Z,27.53
2018-07-24T07:33:11.031Z,27.55
2018-07-24T07:34:11.029Z,27.52
2018-07-24T07:35:32.077Z,27.52
2018-07-24T07:36:11.088Z,27.40
2018-07-24T07:37:11.115Z,27.43
2018-07-24T07:38:11.146Z,27.42
2018-07-24T07:39:11.180Z,27.35
2018-07-24T07:40:11.204Z,27.42
2018-07-24T07:41:32.250Z,27.39
2018-07-24T07:42:11.265Z,27.34
2018-07-24T07:43:11.293Z,27.31
2018-07-24T07:44:11.325Z,27.25
2018-07-24T07:45:11.368Z,27.27
2018-07-24T07:46:11.374Z,27.27
2018-07-24T07:47:32.416Z,27.27
2018-07-24T07:48:11.430Z,27.24
2018-07-24T07:49:11.457Z,27.31
2018-07-24T07:50:11.485Z,27.31
2018-07-24T07:51:11.514Z,27.31
2018-07-24T07:52:11.554Z,27.24
2018-07-24T07:53:32.592Z,27.24
2018-07-24T07:54:11.603Z,27.23
2018-07-24T07:55:11.641Z,27.21
2018-07-24T07:56:11.655Z,27.21
2018-07-24T07:57:11.687Z,27.21
2018-07-24T07:58:11.710Z,27.13
2018-07-24T07:59:32.760Z,27.13
2018-07-24T08:00:11.770Z,27.13
2018-07-24T08:01:11.838Z,27.16
2018-07-24T08:02:11.828Z,27.03
2018-07-24T08:03:11.853Z,27.11
2018-07-24T08:04:11.899Z,27.03
2018-07-24T08:05:32.933Z,27.03
2018-07-24T08:06:11.955Z,26.97
2018-07-24T08:07:11.963Z,27.03
2018-07-24T08:08:11.989Z,27.08
2018-07-24T08:09:12.024Z,26.91
2018-07-24T08:10:12.048Z,26.97
2018-07-24T08:11:33.091Z,26.93
2018-07-24T08:12:12.154Z,26.94
2018-07-24T08:13:12.140Z,26.90
2018-07-24T08:14:12.217Z,26.94
2018-07-24T08:15:12.190Z,26.88
2018-07-24T08:16:12.218Z,26.88
2018-07-24T08:17:33.260Z,26.84
2018-07-24T08:18:12.294Z,26.79
2018-07-24T08:19:12.295Z,26.83
2018-07-24T08:20:12.325Z,26.78
2018-07-24T08:21:12.358Z,26.84
2018-07-24T08:22:12.437Z,26.76
2018-07-24T08:23:33.429Z,26.79
2018-07-24T08:24:12.435Z,26.78
2018-07-24T08:25:12.464Z,26.69
2018-07-24T08:26:12.489Z,26.68
2018-07-24T08:27:12.517Z,26.73
2018-07-24T08:28:12.634Z,26.66
2018-07-24T08:29:33.594Z,26.73
2018-07-24T08:30:12.640Z,26.69
2018-07-24T08:31:12.631Z,26.73
2018-07-24T08:32:12.658Z,26.72
2018-07-24T08:33:12.683Z,26.59
2018-07-24T08:34:12.710Z,26.68
2018-07-24T08:35:33.757Z,26.59
2018-07-24T08:36:12.765Z,26.65
2018-07-24T08:37:12.802Z,26.69
2018-07-24T08:38:12.818Z,26.64
2018-07-24T08:39:12.860Z,26.56
2018-07-24T08:40:12.880Z,26.60
2018-07-24T08:41:33.922Z,26.57
2018-07-24T08:42:12.930Z,26.56
2018-07-24T08:43:12.955Z,26.51
2018-07-24T08:44:12.984Z,26.49
2018-07-24T08:45:13.013Z,26.57
2018-07-24T08:46:13.039Z,26.51
2018-07-24T08:47:34.088Z,26.50
2018-07-24T08:48:13.094Z,26.38
2018-07-24T08:49:13.183Z,26.41
2018-07-24T08:50:13.169Z,26.38
2018-07-24T08:51:13.180Z,26.41
2018-07-24T08:52:13.210Z,26.47
2018-07-24T08:53:34.392Z,26.44
2018-07-24T08:54:13.409Z,26.36
2018-07-24T08:55:13.595Z,26.35
2018-07-24T08:56:13.313Z,26.35
2018-07-24T08:57:13.344Z,26.41
2018-07-24T08:58:13.378Z,26.36
2018-07-24T08:59:34.414Z,26.34
2018-07-24T09:00:13.427Z,26.35
2018-07-24T09:01:13.456Z,26.28
2018-07-24T09:02:13.483Z,26.32
2018-07-24T09:03:13.517Z,26.35
2018-07-24T09:04:13.556Z,26.34
2018-07-24T09:05:34.580Z,26.27
2018-07-24T09:06:13.590Z,26.29
2018-07-24T09:07:13.617Z,26.23
2018-07-24T09:08:13.640Z,26.31
2018-07-24T09:09:13.671Z,26.21
2018-07-24T09:10:13.706Z,26.27
2018-07-24T09:11:34.746Z,26.24
2018-07-24T09:12:13.751Z,26.21
2018-07-24T09:13:13.779Z,26.21
2018-07-24T09:14:13.806Z,26.21
2018-07-24T09:15:13.830Z,26.21
2018-07-24T09:16:13.858Z,26.16
2018-07-24T09:17:34.903Z,26.17
2018-07-24T09:18:13.916Z,26.11
2018-07-24T09:19:13.938Z,26.19
2018-07-24T09:20:13.967Z,26.12
2018-07-24T09:21:13.996Z,25.98
2018-07-24T09:22:14.025Z,26.09
2018-07-24T09:23:35.073Z,26.12
2018-07-24T09:24:14.084Z,26.03
2018-07-24T09:25:14.103Z,26.03
2018-07-24T09:26:14.130Z,26.08
2018-07-24T09:27:14.158Z,26.00
2018-07-24T09:28:14.186Z,26.06
2018-07-24T09:29:35.231Z,26.01
2018-07-24T09:30:14.238Z,26.04
2018-07-24T09:31:14.269Z,26.09
2018-07-24T09:32:14.432Z,26.01
2018-07-24T09:33:14.324Z,26.09
2018-07-24T09:34:14.346Z,26.03
2018-07-24T09:35:35.394Z,26.04
2018-07-24T09:36:14.402Z,26.06
2018-07-24T09:37:14.432Z,26.08
2018-07-24T09:38:14.456Z,25.97
2018-07-24T09:39:14.486Z,26.00
2018-07-24T09:40:14.515Z,26.00
2018-07-24T09:41:35.557Z,26.01
2018-07-24T09:42:14.566Z,25.93
2018-07-24T09:43:14.591Z,26.00
2018-07-24T09:44:14.624Z,25.90
2018-07-24T09:45:14.659Z,25.97
2018-07-24T09:46:14.688Z,25.90
2018-07-24T09:47:35.743Z,25.97
2018-07-24T09:48:14.726Z,25.96
2018-07-24T09:49:14.754Z,25.89
2018-07-24T09:50:14.784Z,25.96
2018-07-24T09:51:14.822Z,25.85
2018-07-24T09:52:14.835Z,25.97
2018-07-24T09:53:35.881Z,25.89
2018-07-24T09:54:14.891Z,25.98
2018-07-24T09:55:14.915Z,25.97
2018-07-24T09:56:14.947Z,25.89
2018-07-24T09:57:14.968Z,25.91
2018-07-24T09:58:14.997Z,25.90
2018-07-24T09:59:36.073Z,25.93
2018-07-24T10:00:15.048Z,25.85
2018-07-24T10:01:15.078Z,25.86
2018-07-24T10:02:15.112Z,25.89
2018-07-24T10:03:15.132Z,25.82
2018-07-24T10:04:15.162Z,25.91
2018-07-24T10:05:36.210Z,25.89
2018-07-24T10:06:15.207Z,25.83
2018-07-24T10:07:15.259Z,25.81
2018-07-24T10:08:15.264Z,25.81
2018-07-24T10:09:15.294Z,25.81
2018-07-24T10:10:15.317Z,25.82
2018-07-24T10:11:36.364Z,25.78
2018-07-24T10:12:15.415Z,25.74
2018-07-24T10:13:15.445Z,25.75
2018-07-24T10:14:15.425Z,25.79
2018-07-24T10:15:15.453Z,25.74
2018-07-24T10:16:15.476Z,25.74
2018-07-24T10:17:36.525Z,25.72
2018-07-24T10:18:15.777Z,25.74
2018-07-24T10:19:15.584Z,25.75
2018-07-24T10:20:15.585Z,25.82
2018-07-24T10:21:15.616Z,25.74
2018-07-24T10:22:15.764Z,25.69
2018-07-24T10:23:36.686Z,25.75
2018-07-24T10:24:15.700Z,25.74
2018-07-24T10:25:15.719Z,25.75
2018-07-24T10:26:15.745Z,25.72
2018-07-24T10:27:15.774Z,25.72
2018-07-24T10:28:15.797Z,25.71
2018-07-24T10:29:36.843Z,25.74
2018-07-24T10:30:15.915Z,25.72
2018-07-24T10:31:15.889Z,25.72
2018-07-24T10:32:15.906Z,25.75
2018-07-24T10:33:15.937Z,25.72
2018-07-24T10:34:15.961Z,25.69
2018-07-24T10:35:37.002Z,25.79
2018-07-24T10:36:16.012Z,25.69
2018-07-24T10:37:16.038Z,25.67
2018-07-24T10:38:16.064Z,25.67
2018-07-24T10:39:16.092Z,25.71
2018-07-24T10:40:16.122Z,25.72
2018-07-24T10:41:37.168Z,25.72
2018-07-24T10:42:16.176Z,25.72
2018-07-24T10:43:16.202Z,25.75
2018-07-24T10:44:16.227Z,25.72
2018-07-24T10:45:16.254Z,25.66
2018-07-24T10:46:16.283Z,25.72
2018-07-24T10:47:37.322Z,25.67
2018-07-24T10:48:16.332Z,25.71
2018-07-24T10:49:16.385Z,25.71
2018-07-24T10:50:16.397Z,25.66
2018-07-24T10:51:16.430Z,25.63
2018-07-24T10:52:16.443Z,25.67
2018-07-24T10:53:37.485Z,25.61
2018-07-24T10:54:16.495Z,25.71
2018-07-24T10:55:16.530Z,25.72
2018-07-24T10:56:16.549Z,25.60
2018-07-24T10:57:16.577Z,25.64
2018-07-24T10:58:16.606Z,25.60
2018-07-24T10:59:37.643Z,25.61
2018-07-24T11:00:16.652Z,25.63
2018-07-24T11:01:16.682Z,25.59
2018-07-24T11:02:16.711Z,25.56
2018-07-24T11:03:16.734Z,25.61
2018-07-24T11:04:16.761Z,25.61
2018-07-24T11:05:37.807Z,25.67
2018-07-24T11:06:16.817Z,25.60
2018-07-24T11:07:16.843Z,25.61
2018-07-24T11:08:16.866Z,25.59
2018-07-24T11:09:16.893Z,25.60
2018-07-24T11:10:16.917Z,25.63
2018-07-24T11:11:37.962Z,25.66
2018-07-24T11:12:16.979Z,25.57
2018-07-24T11:13:17.003Z,25.63
2018-07-24T11:14:17.034Z,25.66
2018-07-24T11:15:17.056Z,25.61
2018-07-24T11:16:17.085Z,25.64
2018-07-24T11:17:38.919Z,25.66
2018-07-24T11:18:17.146Z,25.57
2018-07-24T11:19:17.160Z,25.66
2018-07-24T11:20:17.190Z,25.60
2018-07-24T11:21:17.229Z,25.67
2018-07-24T11:22:17.309Z,25.56
2018-07-24T11:23:38.330Z,25.56
2018-07-24T11:24:17.299Z,25.57
2018-07-24T11:25:17.321Z,25.56
2018-07-24T11:26:17.346Z,25.57
2018-07-24T11:27:17.442Z,25.60
2018-07-24T11:28:17.419Z,25.56
2018-07-24T11:29:38.444Z,25.57
2018-07-24T11:30:17.582Z,25.57
2018-07-24T11:31:17.476Z,25.54
2018-07-24T11:32:17.509Z,25.59
2018-07-24T11:33:17.550Z,25.57
2018-07-24T11:34:17.565Z,25.57
2018-07-24T11:35:38.729Z,25.60
2018-07-24T11:36:17.659Z,25.56
2018-07-24T11:37:17.642Z,25.59
2018-07-24T11:38:17.669Z,25.57
2018-07-24T11:39:17.692Z,25.59
2018-07-24T11:40:17.918Z,25.59
2018-07-24T11:41:38.770Z,25.59
2018-07-24T11:42:17.811Z,25.59
2018-07-24T11:43:17.804Z,25.60
2018-07-24T11:44:17.987Z,25.60
2018-07-24T11:45:17.876Z,25.59
2018-07-24T11:46:17.910Z,25.60
2018-07-24T11:47:39.008Z,25.56
2018-07-24T11:48:17.939Z,25.61
2018-07-24T11:49:17.966Z,25.56
2018-07-24T11:50:17.986Z,25.59
2018-07-24T11:51:18.021Z,25.60
2018-07-24T11:52:18.037Z,25.57
2018-07-24T11:53:39.480Z,25.56
2018-07-24T11:54:18.089Z,25.53
2018-07-24T11:55:18.117Z,25.59
2018-07-24T11:56:18.163Z,25.53
2018-07-24T11:57:18.171Z,25.54
2018-07-24T11:58:18.198Z,25.49
2018-07-24T11:59:39.244Z,25.57
2018-07-24T12:00:18.518Z,25.54
2018-07-24T12:01:18.277Z,25.49
2018-07-24T12:02:18.306Z,25.54
2018-07-24T12:03:18.338Z,25.56
2018-07-24T12:04:18.366Z,25.54
2018-07-24T12:05:39.402Z,25.54
2018-07-24T12:06:18.412Z,25.59
2018-07-24T12:07:18.434Z,25.57
2018-07-24T12:08:18.460Z,25.57
2018-07-24T12:09:18.500Z,25.57
2018-07-24T12:10:18.521Z,25.57
2018-07-24T12:11:39.566Z,25.54
2018-07-24T12:12:18.569Z,25.59
2018-07-24T12:13:18.598Z,25.56
2018-07-24T12:14:18.623Z,25.54
2018-07-24T12:15:18.656Z,25.57
2018-07-24T12:16:18.675Z,25.59
2018-07-24T12:17:39.720Z,25.56
2018-07-24T12:18:18.726Z,25.59
2018-07-24T12:19:18.754Z,25.48
2018-07-24T12:20:18.789Z,25.53
2018-07-24T12:21:19.410Z,25.59
2018-07-24T12:22:18.835Z,25.59
2018-07-24T12:23:39.883Z,25.49
2018-07-24T12:24:18.891Z,25.53
2018-07-24T12:25:18.918Z,25.54
2018-07-24T12:26:18.940Z,25.48
2018-07-24T12:27:18.967Z,25.59
2018-07-24T12:28:18.991Z,25.60
2018-07-24T12:29:40.041Z,25.51
2018-07-24T12:30:19.048Z,25.48
2018-07-24T12:31:19.073Z,25.56
2018-07-24T12:32:19.098Z,25.48
2018-07-24T12:33:19.131Z,25.56
2018-07-24T12:34:19.159Z,25.54
2018-07-24T12:35:40.207Z,25.51
2018-07-24T12:36:19.218Z,25.59
2018-07-24T12:37:19.235Z,25.56
2018-07-24T12:38:19.261Z,25.57
2018-07-24T12:39:19.284Z,25.54
2018-07-24T12:40:19.313Z,25.48
2018-07-24T12:41:40.359Z,25.54
2018-07-24T12:42:19.370Z,25.54
2018-07-24T12:43:19.396Z,25.57
2018-07-24T12:44:19.418Z,25.54
2018-07-24T12:45:19.467Z,25.54
2018-07-24T12:46:19.474Z,25.59
2018-07-24T12:47:40.519Z,25.61
2018-07-24T12:48:19.525Z,25.56
2018-07-24T12:49:19.555Z,25.53
2018-07-24T12:50:19.578Z,25.54
2018-07-24T12:51:19.619Z,25.56
2018-07-24T12:52:19.672Z,25.51
2018-07-24T12:53:40.678Z,25.59